createdAt,value
2023-02-08T00:00:43.646Z,1.04
2023-02-08T00:01:43.634Z,1.18
2023-02-08T00:02:43.672Z,1.31
2023-02-08T00:05:13.318Z,0.50
2023-02-08T00:06:12.799Z,0.50
2023-02-08T00:12:12.173Z,0.50
2023-02-08T00:13:28.441Z,0.50
2023-02-08T00:14:32.098Z,0.50
2023-02-08T00:15:32.293Z,0.50
2023-02-08T00:16:31.807Z,0.50
2023-02-08T00:17:31.808Z,0.50
2023-02-08T00:18:31.893Z,0.50
2023-02-08T00:19:31.821Z,0.63
2023-02-08T00:20:31.751Z,0.76
2023-02-08T00:21:31.814Z,0.84
2023-02-08T00:22:31.748Z,0.87
2023-02-08T00:23:31.721Z,1.05
2023-02-08T00:24:31.734Z,1.04
2023-02-08T00:25:31.741Z,1.09
2023-02-08T00:26:31.740Z,1.09
2023-02-08T00:27:31.708Z,1.51
2023-02-08T00:28:31.760Z,2.13
2023-02-08T00:29:31.774Z,2.75
2023-02-08T00:30:31.870Z,2.69
2023-02-08T00:31:31.749Z,2.45
2023-02-08T00:32:31.681Z,2.08
2023-02-08T00:33:31.720Z,2.21
2023-02-08T00:34:31.694Z,2.63
2023-02-08T00:35:31.742Z,2.60
2023-02-08T00:36:31.663Z,2.73
2023-02-08T00:37:31.675Z,2.43
2023-02-08T00:38:31.632Z,2.69
2023-02-08T00:39:31.634Z,3.57
2023-02-08T00:40:31.632Z,3.84
2023-02-08T00:41:31.654Z,4.66
2023-02-08T00:42:31.592Z,5.18
2023-02-08T00:43:31.642Z,4.95
2023-02-08T00:44:31.613Z,4.32
2023-02-08T00:45:31.649Z,3.83
2023-02-08T00:46:31.641Z,3.79
2023-02-08T00:47:31.604Z,4.10
2023-02-08T00:48:31.562Z,4.64
2023-02-08T00:49:31.593Z,4.59
2023-02-08T00:50:31.602Z,4.06
2023-02-08T00:51:31.536Z,4.28
2023-02-08T00:52:31.600Z,4.49
2023-02-08T00:53:31.525Z,4.96
2023-02-08T00:54:31.599Z,4.24
2023-02-08T00:55:31.539Z,4.41
2023-02-08T00:56:31.558Z,5.49
2023-02-08T00:57:31.500Z,4.71
2023-02-08T00:58:31.566Z,3.43
2023-02-08T00:59:31.551Z,3.17
2023-02-08T01:00:31.527Z,2.60
2023-02-08T01:01:31.474Z,2.38
2023-02-08T01:02:31.481Z,2.71
2023-02-08T01:03:31.607Z,2.17
2023-02-08T01:04:31.491Z,2.00
2023-02-08T01:05:31.515Z,2.53
2023-02-08T01:06:31.496Z,2.34
2023-02-08T01:07:31.508Z,2.40
2023-02-08T01:08:31.569Z,2.49
2023-02-08T01:09:31.443Z,1.75
2023-02-08T01:10:31.448Z,1.69
2023-02-08T01:11:31.496Z,1.58
2023-02-08T01:12:31.475Z,1.51
2023-02-08T01:13:31.549Z,1.54
2023-02-08T01:14:31.581Z,1.53
2023-02-08T01:15:31.685Z,2.18
2023-02-08T01:16:31.761Z,2.96
2023-02-08T01:17:31.624Z,3.56
2023-02-08T01:18:31.707Z,2.85
2023-02-08T01:19:31.636Z,2.87
2023-02-08T01:20:31.836Z,2.11
2023-02-08T01:21:31.727Z,1.84
2023-02-08T01:22:31.750Z,1.47
2023-02-08T01:23:31.723Z,1.11
2023-02-08T01:52:13.226Z,0.50
2023-02-08T01:53:13.164Z,0.50
2023-02-08T01:54:13.057Z,0.50
2023-02-08T01:55:14.099Z,0.50
2023-02-08T01:56:13.761Z,0.50
2023-02-08T01:57:12.894Z,0.49
2023-02-08T01:58:12.854Z,0.53
2023-02-08T01:59:12.902Z,0.52
2023-02-08T02:00:13.090Z,0.52
2023-02-08T02:01:12.847Z,0.50
2023-02-08T02:02:12.824Z,0.51
2023-02-08T02:03:12.835Z,0.50
2023-02-08T02:04:12.900Z,0.52
2023-02-08T02:05:12.910Z,0.53
2023-02-08T02:06:12.761Z,0.55
2023-02-08T02:07:12.762Z,0.59
2023-02-08T02:16:05.986Z,0.50
2023-02-08T02:17:05.950Z,0.50
2023-02-08T02:18:05.522Z,0.50
2023-02-08T02:19:06.131Z,0.50
2023-02-08T02:20:06.483Z,0.50
2023-02-08T02:21:05.383Z,0.50
2023-02-08T02:22:05.496Z,0.52
2023-02-08T02:23:05.389Z,0.48
2023-02-08T02:24:05.412Z,0.53
2023-02-08T02:25:05.403Z,0.51
2023-02-08T02:26:05.418Z,0.51
2023-02-08T02:27:05.331Z,0.50
2023-02-08T02:28:05.428Z,0.56
2023-02-08T02:29:05.343Z,0.66
2023-02-08T02:30:05.345Z,0.56
2023-02-08T02:48:35.393Z,2.21
2023-02-08T02:49:35.390Z,2.32
2023-02-08T02:50:35.477Z,2.22
2023-02-08T02:51:35.453Z,2.07
2023-02-08T02:52:35.548Z,2.15
2023-02-08T02:53:35.528Z,1.90
2023-02-08T02:54:35.565Z,1.44
2023-02-08T02:55:35.631Z,1.06
2023-02-08T02:56:35.616Z,1.41
2023-02-08T02:57:35.674Z,1.34
2023-02-08T02:58:35.677Z,1.28
2023-02-08T02:59:35.713Z,1.21
2023-02-08T03:00:35.700Z,1.02
2023-02-08T03:01:35.700Z,0.75
2023-02-08T03:02:35.707Z,0.72
2023-02-08T03:03:35.681Z,0.84
2023-02-08T03:04:35.716Z,0.98
2023-02-08T03:05:35.745Z,0.88
2023-02-08T03:06:35.736Z,0.88
2023-02-08T03:18:35.893Z,0.50
2023-02-08T03:19:35.981Z,0.50
2023-02-08T03:20:35.444Z,0.50
2023-02-08T03:21:35.387Z,0.50
2023-02-08T03:22:35.392Z,0.50
2023-02-08T03:23:35.372Z,0.50
2023-02-08T03:24:35.778Z,0.55
2023-02-08T03:25:35.463Z,0.34
2023-02-08T03:26:35.429Z,0.34
2023-02-08T03:27:35.268Z,0.34
2023-02-08T03:28:35.275Z,0.36
2023-02-08T03:29:35.241Z,0.34
2023-02-08T03:30:35.404Z,0.36
2023-02-08T03:31:35.412Z,0.34
2023-02-08T03:32:35.305Z,0.34
2023-02-08T03:33:35.310Z,0.44
2023-02-08T03:34:35.285Z,0.57
2023-02-08T03:35:35.366Z,0.75
2023-02-08T03:36:35.527Z,0.75
2023-02-08T03:37:35.503Z,0.86
2023-02-08T03:38:35.487Z,0.98
2023-02-08T03:39:35.601Z,0.80
2023-02-08T03:40:35.665Z,0.55
2023-02-08T03:41:35.678Z,0.53
2023-02-08T03:42:35.798Z,0.60
2023-02-08T03:43:35.830Z,0.54
2023-02-08T03:44:36.198Z,0.58
2023-02-08T03:45:35.933Z,0.57
2023-02-08T03:46:36.058Z,0.52
2023-02-08T03:47:36.304Z,0.67
2023-02-08T03:48:36.171Z,0.80
2023-02-08T03:49:36.142Z,0.85
2023-02-08T03:50:36.286Z,0.77
2023-02-08T03:51:36.285Z,0.68
2023-02-08T03:52:36.416Z,0.65
2023-02-08T03:53:36.368Z,0.80
2023-02-08T03:54:36.484Z,0.89
2023-02-08T03:55:36.548Z,0.95
2023-02-08T03:56:36.611Z,0.99
2023-02-08T03:57:36.647Z,0.62
2023-02-08T03:58:36.712Z,0.63
2023-02-08T04:04:59.546Z,0.50
2023-02-08T04:05:59.229Z,0.50
2023-02-08T04:06:59.267Z,0.50
2023-02-08T04:07:59.203Z,0.50
2023-02-08T04:08:59.216Z,0.50
2023-02-08T04:09:59.275Z,0.50
2023-02-08T04:10:59.228Z,0.57
2023-02-08T04:11:59.194Z,0.57
2023-02-08T04:12:59.147Z,0.59
2023-02-08T05:06:32.496Z,0.34
2023-02-08T05:08:32.431Z,0.34
2023-02-08T05:09:32.444Z,0.34
2023-02-08T05:10:32.455Z,0.34
2023-02-08T05:11:33.383Z,0.41
2023-02-08T05:13:32.463Z,1.37
2023-02-08T05:28:32.516Z,1.03
2023-02-08T06:00:34.069Z,9.30
2023-02-08T06:47:56.012Z,0.50
2023-02-08T06:48:56.116Z,0.50
2023-02-08T06:49:55.430Z,0.50
2023-02-08T06:50:55.870Z,0.50
2023-02-08T06:51:56.270Z,0.50
2023-02-08T06:52:55.361Z,0.51
2023-02-08T06:54:55.463Z,0.51
2023-02-08T06:55:55.371Z,0.50
2023-02-08T06:56:55.929Z,0.42
2023-02-08T06:57:55.431Z,0.44
2023-02-08T06:58:55.232Z,0.37
2023-02-08T06:59:55.259Z,0.40
2023-02-08T07:00:55.489Z,0.47
2023-02-08T07:01:55.459Z,0.51
2023-02-08T07:02:55.397Z,0.46
2023-02-08T07:03:55.307Z,0.49
2023-02-08T07:04:56.002Z,0.61
2023-02-08T07:06:04.569Z,0.58
2023-02-08T07:06:56.474Z,0.58
2023-02-08T07:07:56.490Z,0.58
2023-02-08T07:08:55.718Z,0.60
2023-02-08T07:09:56.689Z,0.63
2023-02-08T07:10:55.730Z,0.50
2023-02-08T07:13:16.063Z,0.50
2023-02-08T07:14:15.513Z,0.50
2023-02-08T07:15:15.488Z,0.50
2023-02-08T07:16:15.406Z,0.50
2023-02-08T07:17:15.457Z,0.50
2023-02-08T07:18:15.380Z,0.50
2023-02-08T07:20:15.624Z,0.77
2023-02-08T07:21:16.727Z,0.63
2023-02-08T07:22:15.358Z,0.79
2023-02-08T07:23:15.484Z,0.71
2023-02-08T07:24:15.430Z,0.64
2023-02-08T07:25:15.329Z,0.50
2023-02-08T07:26:16.078Z,0.50
2023-02-08T07:27:15.270Z,0.50
2023-02-08T07:28:15.376Z,0.53
2023-02-08T07:29:15.594Z,0.42
2023-02-08T07:46:36.264Z,0.93
2023-02-08T07:47:36.066Z,0.63
2023-02-08T07:48:35.986Z,0.50
2023-02-08T07:49:36.006Z,0.60
2023-02-08T07:50:35.995Z,0.62
2023-02-08T07:51:36.116Z,0.47
2023-02-08T07:52:35.904Z,0.64
2023-02-08T07:53:35.908Z,0.34
2023-02-08T07:54:35.825Z,0.34
2023-02-08T07:55:35.916Z,0.34
2023-02-08T07:57:35.885Z,1.07
2023-02-08T07:58:35.815Z,1.34
2023-02-08T07:59:35.838Z,1.70
2023-02-08T08:00:35.874Z,1.80
2023-02-08T08:01:35.898Z,1.83
2023-02-08T08:02:35.792Z,2.03
2023-02-08T08:03:35.831Z,1.10
2023-02-08T11:19:47.781Z,0.50
2023-02-08T11:22:06.930Z,0.50
2023-02-08T11:23:06.654Z,0.50
2023-02-08T11:24:21.178Z,0.50
2023-02-08T11:25:05.911Z,0.50
2023-02-08T11:26:05.765Z,0.50
2023-02-08T11:27:05.621Z,0.50
2023-02-08T11:28:05.751Z,0.50
2023-02-08T11:29:07.481Z,0.50
2023-02-08T11:30:06.115Z,0.55
2023-02-08T11:31:10.626Z,0.50
2023-02-08T11:32:06.067Z,0.44
2023-02-08T11:33:05.759Z,0.34
2023-02-08T11:34:05.977Z,0.34
2023-02-08T11:35:05.821Z,0.34
2023-02-08T11:36:05.968Z,0.34
2023-02-08T11:37:05.701Z,0.34
2023-02-08T11:38:07.319Z,0.39
2023-02-08T11:39:05.544Z,0.34
2023-02-08T11:40:07.532Z,0.38
2023-02-08T11:41:05.598Z,0.58
2023-02-08T11:42:05.599Z,0.57
2023-02-08T11:43:06.021Z,0.57
2023-02-08T11:44:05.619Z,0.64
2023-02-08T11:45:06.528Z,0.59
2023-02-08T11:46:08.667Z,0.72
2023-02-08T11:47:06.092Z,0.67
2023-02-08T11:48:06.577Z,0.62
2023-02-08T11:49:05.423Z,0.73
2023-02-08T11:50:05.455Z,0.59
2023-02-08T11:51:05.342Z,0.41
2023-02-08T11:52:05.346Z,0.62
2023-02-08T11:53:05.297Z,1.06
2023-02-08T11:54:05.406Z,0.44
2023-02-08T11:55:05.636Z,0.53
2023-02-08T11:56:05.208Z,0.39
2023-02-08T11:57:05.255Z,0.34
2023-02-08T11:58:05.244Z,0.34
2023-02-08T11:59:05.267Z,0.42
2023-02-08T12:00:05.214Z,0.47
2023-02-08T12:01:05.337Z,0.45
2023-02-08T12:02:05.338Z,0.47
2023-02-08T12:03:05.232Z,0.46
2023-02-08T12:04:05.242Z,0.52
2023-02-08T12:05:05.238Z,0.66
2023-02-08T12:06:06.151Z,0.66
2023-02-08T12:07:05.184Z,0.54
2023-02-08T12:08:05.169Z,0.58
2023-02-08T12:09:05.169Z,0.75
2023-02-08T12:10:05.156Z,0.92
2023-02-08T12:11:05.151Z,0.69
2023-02-08T12:12:05.112Z,0.75
2023-02-08T12:13:05.202Z,0.71
2023-02-08T12:14:05.121Z,0.62
2023-02-08T12:15:05.142Z,0.50
2023-02-08T12:16:05.496Z,0.50
2023-02-08T12:17:05.273Z,0.58
2023-02-08T12:18:05.362Z,0.52
2023-02-08T12:19:05.251Z,0.43
2023-02-08T12:20:05.261Z,0.47
2023-02-08T12:21:05.316Z,0.41
2023-02-08T12:22:05.370Z,0.82
2023-02-08T12:23:05.282Z,0.84
2023-02-08T12:24:05.300Z,1.40
2023-02-08T12:25:05.684Z,1.91
2023-02-08T12:26:05.474Z,1.42
2023-02-08T12:27:05.435Z,0.87
2023-02-08T12:28:05.422Z,0.55
2023-02-08T12:29:05.470Z,0.54
2023-02-08T12:30:05.789Z,0.59
2023-02-08T12:31:06.355Z,0.76
2023-02-08T12:32:05.561Z,0.89
2023-02-08T12:33:05.740Z,0.93
2023-02-08T12:34:05.574Z,0.93
2023-02-08T12:35:05.828Z,1.64
2023-02-08T12:36:05.886Z,1.15
2023-02-08T12:37:05.665Z,0.85
2023-02-08T12:38:05.736Z,1.04
2023-02-08T12:39:19.467Z,1.42
2023-02-08T12:40:06.647Z,1.42
2023-02-08T12:41:05.701Z,0.81
2023-02-08T12:42:05.692Z,0.82
2023-02-08T12:43:05.664Z,0.87
2023-02-08T12:44:05.720Z,0.68
2023-02-08T12:45:05.647Z,0.74
2023-02-08T12:46:05.752Z,0.95
2023-02-08T12:47:05.845Z,1.09
2023-02-08T12:48:05.606Z,0.65
2023-02-08T12:49:05.586Z,0.50
2023-02-08T12:50:05.599Z,0.50
2023-02-08T12:51:05.665Z,0.34
2023-02-08T12:52:07.463Z,0.34
2023-02-08T12:53:05.980Z,0.39
2023-02-08T12:54:05.891Z,0.37
2023-02-08T12:55:05.948Z,0.40
2023-02-08T12:56:05.996Z,0.38
2023-02-08T12:57:06.972Z,0.48
2023-02-08T12:58:06.067Z,0.55
2023-02-08T12:59:13.515Z,0.55
2023-02-08T13:00:07.070Z,0.52
2023-02-08T13:01:06.106Z,0.56
2023-02-08T13:02:06.063Z,0.57
2023-02-08T13:03:06.075Z,0.60
2023-02-08T13:04:06.066Z,0.34
2023-02-08T13:05:06.009Z,0.34
2023-02-08T13:06:06.372Z,0.47
2023-02-08T13:07:06.150Z,0.57
2023-02-08T13:08:07.032Z,0.60
2023-02-08T13:09:06.157Z,0.73
2023-02-08T13:10:07.095Z,1.00
2023-02-08T13:11:19.190Z,0.71
2023-02-08T13:42:55.749Z,0.50
2023-02-08T13:46:34.131Z,0.50
2023-02-08T13:47:35.457Z,0.50
2023-02-08T13:49:33.627Z,0.50
2023-02-08T13:50:35.635Z,0.50
2023-02-08T13:52:53.817Z,0.50
2023-02-08T13:53:55.277Z,0.50
2023-02-08T13:54:52.696Z,0.50
2023-02-08T13:55:52.700Z,0.50
2023-02-08T13:56:52.719Z,0.50
2023-02-08T13:57:52.658Z,0.50
2023-02-08T13:58:52.949Z,0.50
2023-02-08T13:59:52.757Z,0.34
2023-02-08T14:00:52.698Z,0.35
2023-02-08T14:01:52.605Z,0.48
2023-02-08T14:02:53.631Z,0.34
2023-02-08T14:48:07.017Z,0.50
2023-02-08T14:49:07.174Z,0.50
2023-02-08T14:50:07.505Z,0.50
2023-02-08T14:51:06.433Z,0.50
2023-02-08T14:52:06.489Z,0.50
2023-02-08T14:53:06.420Z,0.50
2023-02-08T14:54:06.416Z,0.34
2023-02-08T14:55:06.634Z,0.34
2023-02-08T14:56:06.664Z,0.34
2023-02-08T14:57:06.715Z,0.34
2023-02-08T14:58:06.417Z,0.34
2023-02-08T14:59:06.412Z,0.34
2023-02-08T15:00:06.375Z,0.34
2023-02-08T15:01:06.467Z,0.34
2023-02-08T15:02:06.359Z,0.34
2023-02-08T15:03:06.402Z,0.34
2023-02-08T15:04:06.396Z,0.34
2023-02-08T15:05:13.271Z,0.34
2023-02-08T15:06:07.299Z,0.34
2023-02-08T15:07:06.316Z,0.34
2023-02-08T15:08:06.290Z,0.34
2023-02-08T15:09:06.265Z,0.34
2023-02-08T15:17:07.084Z,0.50
2023-02-08T15:19:05.963Z,0.50
2023-02-08T15:43:06.381Z,0.50
2023-02-08T15:44:07.096Z,0.50
2023-02-08T15:47:25.286Z,0.50
2023-02-08T16:16:10.742Z,0.50
2023-02-08T16:17:10.397Z,0.50
2023-02-08T16:18:10.623Z,0.50
2023-02-08T16:19:09.901Z,0.50
2023-02-08T16:20:09.814Z,0.50
2023-02-08T16:21:10.772Z,0.52
2023-02-08T16:22:09.769Z,0.64
2023-02-08T16:23:09.715Z,0.97
2023-02-08T16:24:10.766Z,1.51
2023-02-08T16:25:09.776Z,1.47
2023-02-08T16:26:09.823Z,2.07
2023-02-08T16:27:09.996Z,2.89
2023-02-08T16:28:10.026Z,3.73
2023-02-08T16:29:09.889Z,2.46
2023-02-08T16:30:09.942Z,2.22
2023-02-08T16:31:09.997Z,2.85
2023-02-08T16:32:13.441Z,3.65
2023-02-08T16:35:00.294Z,0.50
2023-02-08T16:49:00.644Z,0.50
2023-02-08T16:50:01.165Z,0.50
2023-02-08T16:51:15.002Z,0.50
2023-02-08T16:51:59.713Z,0.50
2023-02-08T16:52:59.637Z,0.50
2023-02-08T16:53:59.655Z,0.50
2023-02-08T16:54:59.637Z,0.50
2023-02-08T16:55:59.842Z,0.50
2023-02-08T16:57:00.010Z,0.68
2023-02-08T17:44:00.682Z,0.50
2023-02-08T17:45:00.840Z,0.50
2023-02-08T17:46:00.560Z,0.50
2023-02-08T17:47:01.116Z,0.50
2023-02-08T17:48:00.265Z,0.50
2023-02-08T17:49:00.085Z,0.53
2023-02-08T17:49:59.829Z,0.66
2023-02-08T17:50:59.906Z,0.54
2023-02-08T17:52:00.916Z,0.74
2023-02-08T17:53:00.168Z,0.63
2023-02-08T17:53:59.991Z,0.74
2023-02-08T17:54:59.951Z,0.42
2023-02-08T17:56:00.000Z,0.48
2023-02-08T17:57:00.120Z,0.61
2023-02-08T17:58:00.319Z,0.62
2023-02-08T17:59:00.194Z,0.65
2023-02-08T18:00:00.323Z,0.74
2023-02-08T18:01:00.399Z,0.88
2023-02-08T18:02:00.472Z,0.75
2023-02-08T18:03:00.876Z,0.65
2023-02-08T18:04:00.458Z,0.87
2023-02-08T18:05:00.660Z,0.98
2023-02-08T18:06:01.953Z,0.99
2023-02-08T18:07:02.621Z,1.27
2023-02-08T18:09:21.339Z,0.50
2023-02-08T18:10:20.885Z,0.50
2023-02-08T18:11:20.554Z,0.50
2023-02-08T18:12:20.556Z,0.50
2023-02-08T18:13:20.488Z,0.50
2023-02-08T18:14:20.608Z,0.38
2023-02-08T18:17:18.019Z,0.50
2023-02-08T18:18:17.615Z,0.50
2023-02-08T18:29:19.524Z,0.50
2023-02-08T18:30:18.156Z,0.50
2023-02-08T18:31:18.924Z,0.50
2023-02-08T18:33:36.462Z,0.50
2023-02-08T19:35:36.130Z,0.90
2023-02-08T19:36:36.241Z,0.68
2023-02-08T19:37:36.217Z,0.77
2023-02-08T19:38:36.245Z,0.88
2023-02-08T19:39:36.263Z,0.99
2023-02-08T19:40:36.311Z,1.13
2023-02-08T19:42:56.979Z,0.50
2023-02-08T19:43:57.230Z,0.50
2023-02-08T19:44:56.707Z,0.50
2023-02-08T19:45:56.774Z,0.50
2023-02-08T19:46:56.905Z,0.50
2023-02-08T19:47:57.670Z,0.54
2023-02-08T19:48:56.706Z,0.52
2023-02-08T19:49:56.707Z,0.42
2023-02-08T19:50:56.798Z,0.46
2023-02-08T19:51:56.723Z,0.54
2023-02-08T19:52:56.713Z,0.58
2023-02-08T19:53:57.020Z,0.75
2023-02-08T19:54:56.662Z,1.06
2023-02-08T19:55:56.703Z,3.02
2023-02-08T19:56:56.652Z,8.66
2023-02-08T19:57:56.633Z,12.57
2023-02-08T19:58:56.652Z,18.16
2023-02-08T19:59:56.669Z,19.42
2023-02-08T20:00:56.648Z,19.23
2023-02-08T20:01:56.702Z,19.97
2023-02-08T20:02:56.659Z,20.68
2023-02-08T20:03:56.654Z,20.26
2023-02-08T20:04:56.626Z,19.22
2023-02-08T20:05:56.603Z,18.82
2023-02-08T20:06:56.568Z,24.26
2023-02-08T20:07:56.625Z,33.56
2023-02-08T20:08:56.546Z,31.68
2023-02-08T20:09:56.577Z,36.17
2023-02-08T20:10:56.593Z,35.36
2023-02-08T20:11:57.721Z,38.10
2023-02-08T20:12:56.517Z,35.25
2023-02-08T20:13:56.630Z,33.59
2023-02-08T20:14:56.512Z,31.71
2023-02-08T20:15:56.535Z,28.05
2023-02-08T20:17:56.927Z,28.94
2023-02-08T20:18:57.059Z,28.27
2023-02-08T20:19:57.595Z,26.37
2023-02-08T20:20:56.733Z,24.03
2023-02-08T20:21:57.922Z,22.13
2023-02-08T20:22:56.483Z,21.35
2023-02-08T20:23:56.497Z,21.86
2023-02-08T20:24:56.529Z,24.88
2023-02-08T20:25:56.491Z,26.42
2023-02-08T20:26:56.417Z,27.32
2023-02-08T20:27:56.489Z,28.11
2023-02-08T20:28:56.528Z,28.51
2023-02-08T20:29:56.454Z,29.90
2023-02-08T20:30:56.492Z,29.19
2023-02-08T20:31:56.493Z,28.76
2023-02-08T20:32:56.385Z,28.12
2023-02-08T20:33:56.454Z,28.21
2023-02-08T20:34:59.733Z,25.53
2023-02-08T20:35:56.373Z,22.42
2023-02-08T20:37:08.467Z,22.10
2023-02-08T20:37:57.409Z,22.13
2023-02-08T20:38:56.325Z,20.96
2023-02-08T20:39:56.385Z,21.03
2023-02-08T20:40:56.339Z,21.15
2023-02-08T20:41:56.369Z,20.05
2023-02-08T20:42:56.317Z,21.01
2023-02-08T20:43:56.416Z,21.51
2023-02-08T20:44:56.258Z,22.07
2023-02-08T20:45:56.361Z,19.85
2023-02-08T20:46:56.455Z,19.39
2023-02-08T20:47:56.474Z,18.96
2023-02-08T20:48:56.466Z,17.97
2023-02-08T20:49:56.594Z,16.62
2023-02-08T20:50:56.546Z,16.08
2023-02-08T20:51:56.576Z,15.25
2023-02-08T20:52:56.578Z,15.05
2023-02-08T20:53:56.682Z,14.01
2023-02-08T20:54:56.710Z,13.91
2023-02-08T20:55:56.704Z,15.59
2023-02-08T20:56:56.705Z,15.04
2023-02-08T20:57:56.793Z,16.96
2023-02-08T20:58:56.864Z,14.89
2023-02-08T20:59:56.855Z,16.08
2023-02-08T21:00:56.954Z,15.63
2023-02-08T21:01:56.910Z,16.12
2023-02-08T21:02:57.126Z,15.34
2023-02-08T21:03:56.960Z,15.46
2023-02-08T21:04:56.927Z,15.84
2023-02-08T21:05:56.987Z,16.30
2023-02-08T21:06:56.991Z,15.47
2023-02-08T21:07:57.091Z,15.14
2023-02-08T21:08:57.069Z,14.34
2023-02-08T21:09:57.057Z,14.38
2023-02-08T21:10:57.032Z,15.13
2023-02-08T21:11:57.035Z,15.65
2023-02-08T21:12:57.030Z,13.89
2023-02-08T21:13:57.232Z,13.37
2023-02-08T21:14:57.051Z,13.35
2023-02-08T21:15:57.148Z,12.81
2023-02-08T21:16:57.116Z,13.66
2023-02-08T21:17:57.226Z,14.63
2023-02-08T21:18:57.185Z,14.33
2023-02-08T21:19:57.325Z,13.55
2023-02-08T21:20:57.173Z,13.95
2023-02-08T21:21:57.314Z,13.23
2023-02-08T21:22:57.248Z,13.69
2023-02-08T21:23:57.204Z,11.60
2023-02-08T21:24:57.322Z,10.59
2023-02-08T21:25:57.327Z,6.28
2023-02-08T21:26:57.364Z,5.59
2023-02-08T21:27:57.561Z,5.65
2023-02-08T21:28:57.523Z,5.01
2023-02-08T21:29:57.453Z,5.22
2023-02-08T21:30:57.632Z,4.86
2023-02-08T21:31:57.754Z,3.96
2023-02-08T21:32:57.655Z,3.20
2023-02-08T21:33:57.668Z,2.97
2023-02-08T21:34:57.692Z,2.85
2023-02-08T21:35:57.752Z,3.12
2023-02-08T21:36:57.792Z,3.53
2023-02-08T21:37:58.069Z,4.30
2023-02-08T21:38:57.900Z,5.31
2023-02-08T21:39:57.917Z,6.26
2023-02-08T21:40:58.031Z,4.58
2023-02-08T21:41:58.056Z,5.56
2023-02-08T21:42:58.148Z,7.17
2023-02-08T21:43:58.170Z,7.97
2023-02-08T21:44:58.297Z,8.78
2023-02-08T21:45:58.346Z,10.18
2023-02-08T21:46:58.360Z,12.51
2023-02-08T21:47:58.408Z,13.09
2023-02-08T21:48:58.500Z,13.63
2023-02-08T21:49:58.493Z,14.06
2023-02-08T21:50:58.496Z,13.89
2023-02-08T21:51:58.499Z,12.78
2023-02-08T21:52:58.622Z,11.92
2023-02-08T21:53:58.540Z,11.98
2023-02-08T21:54:58.662Z,11.25
2023-02-08T21:55:58.564Z,10.92
2023-02-08T21:56:58.627Z,10.47
2023-02-08T21:57:58.783Z,10.47
2023-02-08T21:58:58.669Z,10.36
2023-02-08T21:59:58.718Z,9.64
2023-02-08T22:00:58.757Z,10.03
2023-02-08T22:01:58.806Z,3.46
2023-02-08T22:02:58.920Z,2.05
2023-02-08T22:03:58.888Z,2.37
2023-02-08T22:04:58.915Z,2.58
2023-02-08T22:05:59.021Z,2.31
2023-02-08T22:06:59.033Z,2.33
2023-02-08T22:07:59.115Z,2.37
2023-02-08T22:08:59.237Z,2.80
2023-02-08T22:09:59.231Z,3.83
2023-02-08T22:10:59.635Z,4.75
2023-02-08T22:11:59.356Z,5.64
2023-02-08T22:12:59.381Z,5.88
2023-02-08T22:13:59.506Z,6.28
2023-02-08T22:14:59.530Z,6.58
2023-02-08T22:15:59.626Z,6.72
2023-02-08T22:16:59.600Z,6.77
2023-02-08T22:17:59.706Z,6.63
2023-02-08T22:18:59.727Z,6.60
2023-02-08T22:19:59.850Z,6.86
2023-02-08T22:20:59.829Z,6.60
2023-02-08T22:21:59.890Z,4.70
2023-02-08T22:22:59.996Z,4.32
2023-02-08T22:24:00.093Z,3.67
2023-02-08T22:25:00.101Z,4.08
2023-02-08T22:26:00.127Z,4.40
2023-02-08T22:27:00.114Z,4.38
2023-02-08T22:28:00.124Z,4.52
2023-02-08T22:29:00.186Z,4.67
2023-02-08T22:30:00.211Z,4.52
2023-02-08T22:31:00.305Z,4.35
2023-02-08T22:32:00.493Z,4.13
2023-02-08T22:33:00.215Z,3.98
2023-02-08T22:34:00.242Z,3.68
2023-02-08T22:35:00.337Z,4.19
2023-02-08T22:36:00.321Z,4.28
2023-02-08T22:37:00.312Z,4.21
2023-02-08T22:38:00.385Z,4.29
2023-02-08T22:39:00.356Z,4.59
2023-02-08T22:40:00.401Z,4.90
2023-02-08T22:41:00.397Z,4.69
2023-02-08T22:43:20.988Z,0.50
2023-02-08T22:44:20.939Z,0.50
2023-02-08T22:45:21.387Z,0.50
2023-02-08T22:46:20.514Z,0.50
2023-02-08T22:47:20.791Z,0.50
2023-02-08T22:48:20.309Z,0.51
2023-02-08T22:49:20.322Z,0.51
2023-02-08T22:50:20.320Z,0.50
2023-02-08T22:51:20.278Z,0.52
2023-02-08T22:52:20.321Z,0.62
2023-02-08T22:53:20.314Z,0.65
2023-02-08T22:54:20.349Z,0.69
2023-02-08T22:55:20.337Z,0.71
2023-02-08T22:56:20.368Z,0.75
2023-02-08T22:57:20.324Z,0.70
2023-02-08T22:58:20.287Z,0.72
2023-02-08T22:59:20.241Z,0.73
2023-02-08T23:00:20.278Z,0.60
2023-02-08T23:01:20.331Z,0.50
2023-02-08T23:02:20.241Z,0.52
2023-02-08T23:03:20.268Z,0.60
2023-02-08T23:04:20.215Z,0.58
2023-02-08T23:05:20.194Z,0.48
2023-02-08T23:06:20.290Z,0.50
2023-02-08T23:07:36.662Z,0.50
2023-02-08T23:08:21.402Z,0.44
2023-02-08T23:09:20.644Z,0.34
2023-02-08T23:10:20.296Z,0.34
2023-02-08T23:11:21.253Z,0.34
2023-02-08T23:12:20.903Z,0.34
2023-02-08T23:13:21.190Z,0.34
2023-02-08T23:14:36.614Z,0.34
2023-02-08T23:15:20.475Z,0.34
2023-02-08T23:16:20.552Z,0.34
2023-02-08T23:17:20.282Z,0.34
2023-02-08T23:18:20.169Z,0.34
2023-02-08T23:19:20.105Z,0.34
2023-02-08T23:20:20.115Z,0.34
2023-02-08T23:26:01.315Z,0.50
2023-02-08T23:27:01.124Z,0.50
2023-02-08T23:29:21.233Z,0.50
2023-02-08T23:30:21.131Z,0.50
2023-02-08T23:31:20.739Z,0.50
2023-02-08T23:32:20.822Z,0.50
2023-02-08T23:33:20.701Z,0.50
2023-02-08T23:34:20.702Z,0.57
2023-02-08T23:35:20.647Z,0.55
2023-02-08T23:42:57.215Z,0.50
